Time;durP1;ratioP1;P1;durP2;ratioP2;P2;SDS_P1;SDS_P2;PMS_P1;PMS_P2;Temp;Humidity;BMP_temperature;BMP_pressure;BME280_temperature;BME280_humidity;BME280_pressure;Samples;Min_cycle;Max_cycle;Signal;HPM_P1;HPM_P2
2022/08/30 00:01:35;;;;;;;2.08;1.98;;;;;;;;;;1653583;29;22197;-62
2022/08/30 00:02:27;;;;;;;2.60;2.40;;;;;;;;;;1656039;29;21728;-62
2022/08/30 00:03:20;;;;;;;2.33;2.13;;;;;;;;;;1654728;29;21711;-62
2022/08/30 00:04:12;;;;;;;2.85;2.33;;;;;;;;;;1656923;29;21631;-62
2022/08/30 00:05:04;;;;;;;3.03;2.17;;;;;;;;;;1657014;29;22241;-62
2022/08/30 00:05:57;;;;;;;2.10;2.00;;;;;;;;;;1657907;29;21819;-62
2022/08/30 00:06:48;;;;;;;2.90;2.53;;;;;;;;;;1651939;29;21765;-62
2022/08/30 00:07:40;;;;;;;2.20;2.00;;;;;;;;;;1653077;29;22170;-62
2022/08/30 00:08:32;;;;;;;2.10;1.98;;;;;;;;;;1657374;29;22131;-62
2022/08/30 00:09:24;;;;;;;2.28;2.08;;;;;;;;;;1657097;29;21590;-62
2022/08/30 00:10:16;;;;;;;1.92;1.80;;;;;;;;;;1654815;29;21724;-62
2022/08/30 00:11:12;;;;;;;2.20;2.00;;;;;;;;;;1656345;29;22197;-62
2022/08/30 00:12:04;;;;;;;4.30;2.15;;;;;;;;;;1656439;29;22612;-62
2022/08/30 00:12:58;;;;;;;2.00;1.90;;;;;;;;;;1648588;29;21685;-62
2022/08/30 00:13:51;;;;;;;2.08;1.98;;;;;;;;;;1650209;29;22439;-62
2022/08/30 00:14:44;;;;;;;1.98;1.88;;;;;;;;;;1655006;29;21567;-62
2022/08/30 00:15:35;;;;;;;2.25;2.13;;;;;;;;;;1656135;29;22516;-62
2022/08/30 00:16:27;;;;;;;2.33;2.10;;;;;;;;;;1658510;29;21682;-62
2022/08/30 00:17:18;;;;;;;2.22;2.13;;;;;;;;;;1656907;29;21709;-62
2022/08/30 00:18:11;;;;;;;2.10;2.00;;;;;;;;;;1655738;29;21989;-62
2022/08/30 00:19:02;;;;;;;2.00;1.83;;;;;;;;;;1656965;29;21665;-62
2022/08/30 00:19:55;;;;;;;3.72;2.05;;;;;;;;;;1655861;29;21650;-63
2022/08/30 00:20:47;;;;;;;1.60;1.55;;;;;;;;;;1655363;29;22479;-62
2022/08/30 00:21:39;;;;;;;2.00;1.90;;;;;;;;;;1655298;29;22403;-62
2022/08/30 00:22:31;;;;;;;2.08;1.98;;;;;;;;;;1656479;29;21584;-62
2022/08/30 00:23:24;;;;;;;1.63;1.55;;;;;;;;;;1654287;29;22029;-62
2022/08/30 00:24:15;;;;;;;2.00;1.90;;;;;;;;;;1657089;29;21663;-62
2022/08/30 00:25:09;;;;;;;3.00;1.73;;;;;;;;;;1655586;29;21917;-62
2022/08/30 00:26:01;;;;;;;1.75;1.65;;;;;;;;;;1654760;29;21676;-62
2022/08/30 00:26:53;;;;;;;2.13;1.92;;;;;;;;;;1655750;29;21647;-62
2022/08/30 00:27:45;;;;;;;2.13;1.92;;;;;;;;;;1657228;29;22049;-62
2022/08/30 00:28:38;;;;;;;2.00;1.70;;;;;;;;;;1652922;29;21723;-62
2022/08/30 00:29:29;;;;;;;1.92;1.83;;;;;;;;;;1656638;29;22080;-63
2022/08/30 00:30:22;;;;;;;1.80;1.70;;;;;;;;;;1658036;29;21911;-62
2022/08/30 00:31:13;;;;;;;1.73;1.60;;;;;;;;;;1656420;29;21651;-62
2022/08/30 00:32:06;;;;;;;1.80;1.70;;;;;;;;;;1655210;29;21980;-62
2022/08/30 00:32:58;;;;;;;3.13;2.10;;;;;;;;;;1657904;29;21639;-63
2022/08/30 00:33:50;;;;;;;1.80;1.70;;;;;;;;;;1657007;29;22479;-63
2022/08/30 00:34:41;;;;;;;2.05;1.95;;;;;;;;;;1654353;29;21662;-63
2022/08/30 00:35:33;;;;;;;1.67;1.33;;;;;;;;;;1658144;29;21863;-63
2022/08/30 00:36:25;;;;;;;1.75;1.65;;;;;;;;;;1656293;29;22434;-63
2022/08/30 00:37:18;;;;;;;1.60;1.50;;;;;;;;;;1659893;29;22424;-63
2022/08/30 00:38:11;;;;;;;1.70;1.60;;;;;;;;;;1657252;29;22065;-63
2022/08/30 00:39:05;;;;;;;1.98;1.88;;;;;;;;;;1656371;29;21660;-63
2022/08/30 00:39:56;;;;;;;1.63;1.52;;;;;;;;;;1659517;29;21918;-62
2022/08/30 00:40:48;;;;;;;2.53;1.80;;;;;;;;;;1655806;29;21992;-62
2022/08/30 00:41:40;;;;;;;1.58;1.48;;;;;;;;;;1657135;29;22391;-62
2022/08/30 00:42:33;;;;;;;1.60;1.50;;;;;;;;;;1651106;29;21616;-63
2022/08/30 00:43:29;;;;;;;1.80;1.70;;;;;;;;;;1642382;29;22044;-62
2022/08/30 00:44:23;;;;;;;1.80;1.70;;;;;;;;;;1652231;29;21608;-62
2022/08/30 00:45:19;;;;;;;1.60;1.50;;;;;;;;;;1654766;29;21688;-62
2022/08/30 00:46:12;;;;;;;1.77;1.65;;;;;;;;;;1655752;29;21628;-62
2022/08/30 00:47:03;;;;;;;1.80;1.70;;;;;;;;;;1655766;29;21851;-62
2022/08/30 00:47:55;;;;;;;1.60;1.50;;;;;;;;;;1656981;29;22400;-64
2022/08/30 00:48:49;;;;;;;1.95;1.80;;;;;;;;;;1656260;29;21649;-63
2022/08/30 00:49:46;;;;;;;1.65;1.52;;;;;;;;;;1658260;29;22594;-63
2022/08/30 00:50:42;;;;;;;1.52;1.42;;;;;;;;;;1655336;29;21644;-63
2022/08/30 00:51:35;;;;;;;1.60;1.50;;;;;;;;;;1655630;29;22608;-63
2022/08/30 00:52:26;;;;;;;2.30;1.45;;;;;;;;;;1656060;29;21994;-63
2022/08/30 00:53:23;;;;;;;1.40;1.30;;;;;;;;;;1653535;29;21797;-63
2022/08/30 00:54:14;;;;;;;1.80;1.70;;;;;;;;;;1657058;29;21797;-63
2022/08/30 00:55:08;;;;;;;1.63;1.52;;;;;;;;;;1657318;29;22392;-63
2022/08/30 00:56:02;;;;;;;1.35;1.20;;;;;;;;;;1657088;29;21676;-63
2022/08/30 00:56:54;;;;;;;1.45;1.35;;;;;;;;;;1658776;29;21863;-63
2022/08/30 00:57:47;;;;;;;1.90;1.63;;;;;;;;;;1660729;29;21736;-63
2022/08/30 00:58:45;;;;;;;1.42;1.33;;;;;;;;;;1654867;29;21656;-63
2022/08/30 00:59:38;;;;;;;1.50;1.40;;;;;;;;;;1658734;29;21634;-63
2022/08/30 01:00:30;;;;;;;4.00;1.40;;;;;;;;;;1656118;29;21784;-62
2022/08/30 01:01:22;;;;;;;1.27;1.27;;;;;;;;;;1651127;29;22031;-62
2022/08/30 01:02:16;;;;;;;1.52;1.42;;;;;;;;;;1655336;29;21659;-62
2022/08/30 01:03:08;;;;;;;6.00;1.48;;;;;;;;;;1653875;29;21813;-62
2022/08/30 01:04:00;;;;;;;1.60;1.48;;;;;;;;;;1654560;29;21583;-62
2022/08/30 01:04:54;;;;;;;1.35;1.25;;;;;;;;;;1654796;29;21768;-62
2022/08/30 01:05:48;;;;;;;1.20;1.10;;;;;;;;;;1656112;29;22591;-62
2022/08/30 01:06:40;;;;;;;1.20;1.20;;;;;;;;;;1656020;29;21657;-62
2022/08/30 01:07:33;;;;;;;1.50;1.40;;;;;;;;;;1655787;29;21909;-62
2022/08/30 01:08:26;;;;;;;2.08;1.40;;;;;;;;;;1655024;29;21651;-61
2022/08/30 01:09:18;;;;;;;1.48;1.30;;;;;;;;;;1656044;29;21601;-62
2022/08/30 01:10:12;;;;;;;1.75;1.30;;;;;;;;;;1654251;29;21588;-61
2022/08/30 01:11:05;;;;;;;0.90;0.90;;;;;;;;;;1654558;29;21663;-62
2022/08/30 01:11:57;;;;;;;1.60;1.50;;;;;;;;;;1656931;29;21904;-62
2022/08/30 01:12:49;;;;;;;1.80;1.70;;;;;;;;;;1655411;29;23354;-62
2022/08/30 01:13:40;;;;;;;1.25;1.15;;;;;;;;;;1654956;29;21641;-62
2022/08/30 01:14:33;;;;;;;1.48;1.38;;;;;;;;;;1655937;29;21932;-63
2022/08/30 01:15:26;;;;;;;1.58;1.48;;;;;;;;;;1656428;29;21592;-62
2022/08/30 01:16:19;;;;;;;4.25;1.27;;;;;;;;;;1654904;29;21628;-62
2022/08/30 01:17:10;;;;;;;1.30;1.20;;;;;;;;;;1655637;29;22401;-62
2022/08/30 01:18:03;;;;;;;1.70;1.25;;;;;;;;;;1658287;29;21610;-62
2022/08/30 01:18:57;;;;;;;1.60;1.50;;;;;;;;;;1654454;29;21667;-62
2022/08/30 01:19:54;;;;;;;1.30;1.20;;;;;;;;;;1657251;29;21592;-62
2022/08/30 01:20:53;;;;;;;1.83;1.70;;;;;;;;;;1658976;29;21621;-62
2022/08/30 01:21:50;;;;;;;1.48;1.40;;;;;;;;;;1657598;29;21570;-62
2022/08/30 01:22:59;;;;;;;1.65;1.50;;;;;;;;;;1656900;29;21914;-62
2022/08/30 01:23:55;;;;;;;1.63;1.38;;;;;;;;;;1655063;29;22476;-62
2022/08/30 01:24:48;;;;;;;1.30;1.10;;;;;;;;;;1654454;29;22078;-62
2022/08/30 01:25:43;;;;;;;1.45;1.35;;;;;;;;;;1658412;29;22438;-62
2022/08/30 01:26:36;;;;;;;1.98;1.30;;;;;;;;;;1655616;29;21709;-62
2022/08/30 01:27:30;;;;;;;1.25;1.15;;;;;;;;;;1657113;29;22214;-62
2022/08/30 01:28:24;;;;;;;1.20;1.10;;;;;;;;;;1661039;29;22107;-62
2022/08/30 01:29:21;;;;;;;1.40;1.27;;;;;;;;;;1654487;29;21708;-63
2022/08/30 01:30:13;;;;;;;2.72;1.13;;;;;;;;;;1657216;29;21700;-62
2022/08/30 01:31:05;;;;;;;1.40;1.08;;;;;;;;;;1655684;29;21978;-62
2022/08/30 01:31:56;;;;;;;1.30;1.20;;;;;;;;;;1651058;29;22272;-63
2022/08/30 01:32:50;;;;;;;1.45;1.35;;;;;;;;;;1642368;29;21616;-63
2022/08/30 01:33:41;;;;;;;1.45;1.35;;;;;;;;;;1646426;29;21548;-63
2022/08/30 01:34:34;;;;;;;1.77;1.58;;;;;;;;;;1644955;29;22461;-63
2022/08/30 01:35:26;;;;;;;1.50;1.40;;;;;;;;;;1647460;29;21667;-62
2022/08/30 01:36:20;;;;;;;1.10;0.98;;;;;;;;;;1657251;29;22487;-63
2022/08/30 01:37:11;;;;;;;1.17;1.08;;;;;;;;;;1656742;29;21702;-62
2022/08/30 01:38:05;;;;;;;1.15;1.15;;;;;;;;;;1655882;29;21646;-62
2022/08/30 01:38:57;;;;;;;1.20;1.10;;;;;;;;;;1657094;29;22434;-62
2022/08/30 01:39:50;;;;;;;1.25;1.00;;;;;;;;;;1657132;29;21607;-62
2022/08/30 01:40:41;;;;;;;1.60;1.50;;;;;;;;;;1653705;29;21664;-62
2022/08/30 01:41:35;;;;;;;2.03;1.15;;;;;;;;;;1655821;29;22795;-62
2022/08/30 01:42:27;;;;;;;1.25;1.15;;;;;;;;;;1655817;29;22413;-61
2022/08/30 01:43:19;;;;;;;1.30;1.20;;;;;;;;;;1653213;29;21659;-63
2022/08/30 01:44:12;;;;;;;1.42;1.27;;;;;;;;;;1655933;29;21627;-61
2022/08/30 01:45:08;;;;;;;1.25;1.15;;;;;;;;;;1655150;29;21665;-62
2022/08/30 01:46:00;;;;;;;1.17;1.15;;;;;;;;;;1653068;29;21711;-62
2022/08/30 01:46:53;;;;;;;1.08;1.00;;;;;;;;;;1656889;29;21747;-62
2022/08/30 01:47:44;;;;;;;1.30;1.20;;;;;;;;;;1656825;29;22438;-61
2022/08/30 01:48:37;;;;;;;1.23;1.13;;;;;;;;;;1654809;29;21628;-61
2022/08/30 01:49:29;;;;;;;1.13;1.10;;;;;;;;;;1657110;29;21602;-61
2022/08/30 01:50:21;;;;;;;1.20;1.10;;;;;;;;;;1657569;29;21593;-61
2022/08/30 01:51:13;;;;;;;0.98;0.98;;;;;;;;;;1655774;29;21694;-61
2022/08/30 01:52:07;;;;;;;1.33;1.20;;;;;;;;;;1655703;29;21612;-62
2022/08/30 01:52:58;;;;;;;1.00;0.90;;;;;;;;;;1655455;29;22627;-62
2022/08/30 01:53:52;;;;;;;1.30;1.20;;;;;;;;;;1653064;29;22457;-62
2022/08/30 01:54:45;;;;;;;3.25;1.08;;;;;;;;;;1653113;29;21661;-62
2022/08/30 01:55:37;;;;;;;1.00;1.00;;;;;;;;;;1658397;29;21622;-62
2022/08/30 01:56:29;;;;;;;0.90;0.90;;;;;;;;;;1655570;29;21606;-62
2022/08/30 01:57:25;;;;;;;1.25;1.15;;;;;;;;;;1651215;29;22038;-62
2022/08/30 01:58:16;;;;;;;0.98;0.75;;;;;;;;;;1652496;29;22240;-63
2022/08/30 01:59:09;;;;;;;0.90;0.90;;;;;;;;;;1655562;29;21735;-62
2022/08/30 02:00:01;;;;;;;1.08;1.08;;;;;;;;;;1655338;29;21596;-62
2022/08/30 02:00:53;;;;;;;1.10;1.10;;;;;;;;;;1656098;29;21656;-63
2022/08/30 02:01:44;;;;;;;1.00;0.95;;;;;;;;;;1655277;29;21750;-62
2022/08/30 02:02:36;;;;;;;1.20;1.10;;;;;;;;;;1654403;29;21704;-63
2022/08/30 02:03:31;;;;;;;1.10;1.00;;;;;;;;;;1655909;29;23575;-62
2022/08/30 02:04:25;;;;;;;0.98;0.98;;;;;;;;;;1652352;29;21645;-62
2022/08/30 02:05:17;;;;;;;1.27;1.20;;;;;;;;;;1657172;29;22198;-62
2022/08/30 02:06:13;;;;;;;0.88;0.77;;;;;;;;;;1658002;29;21579;-62
2022/08/30 02:07:04;;;;;;;1.00;1.00;;;;;;;;;;1658423;29;21684;-62
2022/08/30 02:07:56;;;;;;;1.00;1.00;;;;;;;;;;1654572;29;22218;-63
2022/08/30 02:08:50;;;;;;;1.30;1.10;;;;;;;;;;1655667;29;22002;-63
2022/08/30 02:09:42;;;;;;;0.90;0.90;;;;;;;;;;1658352;29;21680;-62
2022/08/30 02:10:33;;;;;;;0.90;0.90;;;;;;;;;;1654738;29;21647;-61
2022/08/30 02:11:26;;;;;;;1.20;1.10;;;;;;;;;;1657147;29;22266;-61
2022/08/30 02:12:18;;;;;;;0.93;0.93;;;;;;;;;;1656688;29;22153;-61
2022/08/30 02:13:10;;;;;;;1.00;0.98;;;;;;;;;;1654982;29;21765;-61
2022/08/30 02:14:02;;;;;;;1.15;1.08;;;;;;;;;;1653729;29;21552;-61
2022/08/30 02:14:54;;;;;;;0.98;0.98;;;;;;;;;;1655605;29;22471;-62
2022/08/30 02:15:45;;;;;;;0.90;0.90;;;;;;;;;;1653939;29;22651;-61
2022/08/30 02:16:38;;;;;;;1.23;1.13;;;;;;;;;;1655375;29;21648;-61
2022/08/30 02:17:29;;;;;;;0.68;0.68;;;;;;;;;;1656761;29;21672;-62
2022/08/30 02:18:22;;;;;;;0.90;0.90;;;;;;;;;;1654526;29;21983;-62
2022/08/30 02:19:14;;;;;;;5.13;1.02;;;;;;;;;;1656957;29;22438;-61
2022/08/30 02:20:08;;;;;;;1.00;1.00;;;;;;;;;;1655950;29;21628;-61
2022/08/30 02:20:59;;;;;;;0.63;0.63;;;;;;;;;;1655547;29;21691;-62
2022/08/30 02:21:52;;;;;;;0.95;0.95;;;;;;;;;;1654621;29;21700;-63
2022/08/30 02:22:43;;;;;;;0.93;0.93;;;;;;;;;;1654707;29;22814;-62
2022/08/30 02:23:36;;;;;;;1.08;0.95;;;;;;;;;;1653589;29;21626;-62
2022/08/30 02:24:29;;;;;;;1.23;0.90;;;;;;;;;;1653923;29;22101;-63
2022/08/30 02:25:22;;;;;;;1.10;0.90;;;;;;;;;;1655606;29;21733;-62
2022/08/30 02:26:13;;;;;;;0.88;0.88;;;;;;;;;;1655856;29;22445;-62
2022/08/30 02:27:06;;;;;;;0.80;0.80;;;;;;;;;;1653225;29;21650;-63
2022/08/30 02:27:57;;;;;;;0.88;0.88;;;;;;;;;;1655719;29;22350;-62
2022/08/30 02:28:50;;;;;;;0.90;0.90;;;;;;;;;;1655642;29;22816;-63
2022/08/30 02:29:41;;;;;;;0.95;0.95;;;;;;;;;;1653982;29;22534;-63
2022/08/30 02:30:34;;;;;;;1.40;0.70;;;;;;;;;;1657987;29;22767;-62
2022/08/30 02:31:25;;;;;;;0.77;0.77;;;;;;;;;;1658359;29;21660;-62
2022/08/30 02:32:18;;;;;;;1.10;1.10;;;;;;;;;;1654484;29;21624;-63
2022/08/30 02:33:09;;;;;;;0.75;0.75;;;;;;;;;;1654043;29;21614;-63
2022/08/30 02:34:03;;;;;;;0.85;0.80;;;;;;;;;;1655424;29;21664;-61
2022/08/30 02:34:54;;;;;;;0.70;0.70;;;;;;;;;;1657096;29;21875;-61
2022/08/30 02:35:46;;;;;;;0.77;0.77;;;;;;;;;;1657202;29;21676;-62
2022/08/30 02:36:39;;;;;;;1.05;0.95;;;;;;;;;;1657319;29;21806;-62
2022/08/30 02:37:31;;;;;;;0.90;0.90;;;;;;;;;;1658747;29;21700;-62
2022/08/30 02:38:23;;;;;;;0.95;0.95;;;;;;;;;;1655791;29;22514;-62
2022/08/30 02:39:15;;;;;;;1.90;0.90;;;;;;;;;;1659640;29;21726;-62
2022/08/30 02:40:10;;;;;;;0.80;0.80;;;;;;;;;;1655894;29;22329;-62
2022/08/30 02:41:02;;;;;;;0.90;0.90;;;;;;;;;;1654028;29;21629;-62
2022/08/30 02:41:53;;;;;;;0.90;0.90;;;;;;;;;;1650479;29;22124;-62
2022/08/30 02:42:45;;;;;;;0.90;0.90;;;;;;;;;;1655689;29;22164;-62
2022/08/30 02:43:37;;;;;;;0.70;0.70;;;;;;;;;;1654606;29;21697;-62
2022/08/30 02:44:29;;;;;;;0.60;0.60;;;;;;;;;;1656748;29;21861;-62
2022/08/30 02:45:20;;;;;;;0.70;0.70;;;;;;;;;;1657972;29;21626;-62
2022/08/30 02:46:13;;;;;;;0.80;0.80;;;;;;;;;;1656424;29;21723;-61
2022/08/30 02:47:04;;;;;;;1.02;1.02;;;;;;;;;;1655410;29;21811;-62
2022/08/30 02:47:56;;;;;;;0.60;0.60;;;;;;;;;;1657544;29;21621;-62
2022/08/30 02:48:48;;;;;;;0.95;0.85;;;;;;;;;;1655054;29;21686;-62
2022/08/30 02:49:40;;;;;;;0.85;0.75;;;;;;;;;;1655598;29;21757;-62
2022/08/30 02:50:31;;;;;;;0.77;0.70;;;;;;;;;;1656779;29;21802;-62
2022/08/30 02:51:24;;;;;;;0.63;0.63;;;;;;;;;;1653394;29;21587;-62
2022/08/30 02:52:15;;;;;;;0.80;0.80;;;;;;;;;;1656630;29;22010;-63
2022/08/30 02:53:08;;;;;;;0.73;0.73;;;;;;;;;;1657297;29;21701;-63
2022/08/30 02:53:59;;;;;;;0.68;0.68;;;;;;;;;;1652549;29;21657;-63
2022/08/30 02:54:51;;;;;;;2.38;0.85;;;;;;;;;;1656440;29;21597;-63
2022/08/30 02:55:44;;;;;;;0.52;0.52;;;;;;;;;;1656582;29;21725;-63
2022/08/30 02:56:36;;;;;;;0.70;0.60;;;;;;;;;;1654483;29;21640;-62
2022/08/30 02:57:27;;;;;;;0.65;0.60;;;;;;;;;;1654128;29;21917;-62
2022/08/30 02:58:20;;;;;;;0.60;0.60;;;;;;;;;;1656763;29;21618;-63
2022/08/30 02:59:11;;;;;;;0.95;0.73;;;;;;;;;;1656086;29;22303;-62
2022/08/30 03:00:06;;;;;;;0.73;0.70;;;;;;;;;;1657670;29;21730;-63
2022/08/30 03:00:57;;;;;;;0.50;0.50;;;;;;;;;;1657697;29;21705;-63
2022/08/30 03:01:49;;;;;;;0.77;0.77;;;;;;;;;;1656021;29;21785;-63
2022/08/30 03:02:41;;;;;;;0.43;0.43;;;;;;;;;;1654848;29;22109;-63
2022/08/30 03:03:33;;;;;;;0.60;0.60;;;;;;;;;;1653440;29;21774;-62
2022/08/30 03:04:25;;;;;;;0.98;0.70;;;;;;;;;;1652286;29;22562;-62
2022/08/30 03:05:18;;;;;;;0.57;0.57;;;;;;;;;;1655037;29;21643;-62
2022/08/30 03:06:09;;;;;;;0.60;0.60;;;;;;;;;;1655138;29;21708;-62
2022/08/30 03:07:02;;;;;;;0.65;0.63;;;;;;;;;;1655310;29;21640;-63
2022/08/30 03:07:53;;;;;;;0.60;0.60;;;;;;;;;;1654111;29;21656;-62
2022/08/30 03:08:45;;;;;;;0.73;0.73;;;;;;;;;;1657770;29;21638;-62
2022/08/30 03:09:36;;;;;;;0.70;0.70;;;;;;;;;;1659432;29;21624;-62
2022/08/30 03:10:29;;;;;;;0.60;0.60;;;;;;;;;;1656396;29;21610;-63
2022/08/30 03:11:22;;;;;;;1.65;0.77;;;;;;;;;;1655504;29;22433;-63
2022/08/30 03:12:14;;;;;;;0.55;0.55;;;;;;;;;;1659038;29;21868;-63
2022/08/30 03:13:06;;;;;;;0.90;0.70;;;;;;;;;;1655242;29;22689;-64
2022/08/30 03:13:58;;;;;;;0.70;0.70;;;;;;;;;;1653271;29;21634;-63
2022/08/30 03:14:50;;;;;;;0.73;0.73;;;;;;;;;;1660447;29;21604;-63
2022/08/30 03:15:43;;;;;;;0.70;0.70;;;;;;;;;;1657182;29;21606;-61
2022/08/30 03:16:34;;;;;;;0.77;0.50;;;;;;;;;;1656481;29;21693;-60
2022/08/30 03:17:27;;;;;;;1.30;0.70;;;;;;;;;;1656593;29;22493;-62
2022/08/30 03:18:20;;;;;;;0.47;0.47;;;;;;;;;;1655137;29;22014;-63
2022/08/30 03:19:12;;;;;;;0.60;0.60;;;;;;;;;;1656378;29;21646;-62
2022/08/30 03:20:04;;;;;;;0.50;0.50;;;;;;;;;;1656852;29;22438;-62
2022/08/30 03:20:56;;;;;;;0.40;0.40;;;;;;;;;;1655416;29;21659;-62
2022/08/30 03:21:49;;;;;;;0.70;0.70;;;;;;;;;;1652528;29;21722;-62
2022/08/30 03:22:41;;;;;;;0.65;0.60;;;;;;;;;;1655943;29;22258;-62
2022/08/30 03:23:32;;;;;;;1.10;0.75;;;;;;;;;;1654304;29;21673;-62
2022/08/30 03:24:25;;;;;;;0.70;0.70;;;;;;;;;;1655414;29;21600;-62
2022/08/30 03:25:16;;;;;;;0.80;0.70;;;;;;;;;;1656430;29;21628;-62
2022/08/30 03:26:11;;;;;;;0.80;0.75;;;;;;;;;;1654702;29;22586;-62
2022/08/30 03:27:04;;;;;;;0.65;0.65;;;;;;;;;;1654821;29;22539;-62
2022/08/30 03:27:56;;;;;;;0.70;0.70;;;;;;;;;;1656495;29;22361;-62
2022/08/30 03:28:47;;;;;;;0.75;0.70;;;;;;;;;;1655280;29;22631;-62
2022/08/30 03:29:39;;;;;;;0.80;0.70;;;;;;;;;;1655737;29;22476;-62
2022/08/30 03:30:31;;;;;;;0.88;0.70;;;;;;;;;;1656593;29;21651;-62
2022/08/30 03:31:24;;;;;;;1.05;0.70;;;;;;;;;;1655456;29;21622;-63
2022/08/30 03:32:15;;;;;;;0.80;0.80;;;;;;;;;;1657699;29;22598;-62
2022/08/30 03:33:07;;;;;;;0.65;0.65;;;;;;;;;;1658361;29;21598;-63
2022/08/30 03:33:58;;;;;;;1.15;0.70;;;;;;;;;;1655432;29;22049;-62
2022/08/30 03:34:50;;;;;;;0.60;0.60;;;;;;;;;;1654872;29;21602;-62
2022/08/30 03:35:42;;;;;;;0.60;0.60;;;;;;;;;;1658572;29;21590;-62
2022/08/30 03:36:34;;;;;;;0.60;0.60;;;;;;;;;;1656583;29;22558;-62
2022/08/30 03:37:26;;;;;;;1.75;0.70;;;;;;;;;;1656216;29;21685;-62
2022/08/30 03:38:18;;;;;;;0.55;0.55;;;;;;;;;;1656640;29;22240;-62
2022/08/30 03:39:10;;;;;;;1.15;0.70;;;;;;;;;;1658972;29;22138;-62
2022/08/30 03:40:03;;;;;;;0.70;0.57;;;;;;;;;;1656368;29;22417;-62
2022/08/30 03:40:54;;;;;;;0.77;0.77;;;;;;;;;;1650577;29;21688;-62
2022/08/30 03:41:47;;;;;;;0.50;0.50;;;;;;;;;;1650629;29;21768;-62
2022/08/30 03:42:40;;;;;;;1.98;0.50;;;;;;;;;;1654872;29;21786;-62
2022/08/30 03:43:33;;;;;;;0.52;0.50;;;;;;;;;;1657068;29;21668;-62
2022/08/30 03:44:24;;;;;;;1.60;0.60;;;;;;;;;;1657600;29;22522;-62
2022/08/30 03:45:18;;;;;;;0.60;0.60;;;;;;;;;;1656537;29;22084;-62
2022/08/30 03:46:10;;;;;;;0.50;0.50;;;;;;;;;;1655779;29;22493;-62
2022/08/30 03:47:03;;;;;;;0.63;0.60;;;;;;;;;;1649223;29;22272;-62
2022/08/30 03:47:54;;;;;;;0.70;0.50;;;;;;;;;;1649738;29;21994;-62
2022/08/30 03:48:46;;;;;;;0.80;0.65;;;;;;;;;;1654574;29;21660;-62
2022/08/30 03:49:37;;;;;;;0.75;0.70;;;;;;;;;;1657670;29;22116;-62
2022/08/30 03:50:30;;;;;;;0.63;0.63;;;;;;;;;;1656434;29;21660;-63
2022/08/30 03:51:21;;;;;;;4.10;0.60;;;;;;;;;;1656940;29;22367;-62
2022/08/30 03:52:14;;;;;;;0.60;0.60;;;;;;;;;;1657568;29;21752;-62
2022/08/30 03:53:05;;;;;;;0.85;0.60;;;;;;;;;;1655480;29;21638;-62
2022/08/30 03:53:57;;;;;;;0.68;0.68;;;;;;;;;;1659035;29;21730;-61
2022/08/30 03:54:48;;;;;;;1.60;0.60;;;;;;;;;;1654646;29;21612;-62
2022/08/30 03:55:41;;;;;;;0.63;0.60;;;;;;;;;;1657256;29;21839;-62
2022/08/30 03:56:32;;;;;;;1.48;0.60;;;;;;;;;;1657948;29;22330;-62
2022/08/30 03:57:24;;;;;;;0.40;0.40;;;;;;;;;;1656156;29;21649;-63
2022/08/30 03:58:17;;;;;;;1.40;0.50;;;;;;;;;;1656606;29;22829;-62
2022/08/30 03:59:09;;;;;;;0.60;0.60;;;;;;;;;;1657427;29;21765;-62
2022/08/30 04:00:01;;;;;;;0.60;0.60;;;;;;;;;;1653757;29;22120;-62
2022/08/30 04:00:53;;;;;;;0.63;0.63;;;;;;;;;;1655570;29;22590;-63
2022/08/30 04:01:44;;;;;;;0.90;0.63;;;;;;;;;;1659094;29;21685;-63
2022/08/30 04:02:36;;;;;;;0.50;0.50;;;;;;;;;;1656550;29;21789;-63
2022/08/30 04:03:28;;;;;;;0.70;0.60;;;;;;;;;;1654696;29;21593;-62
2022/08/30 04:04:20;;;;;;;0.60;0.60;;;;;;;;;;1657669;29;22084;-62
2022/08/30 04:05:12;;;;;;;0.55;0.55;;;;;;;;;;1657310;29;21735;-62
2022/08/30 04:06:05;;;;;;;0.50;0.50;;;;;;;;;;1653940;29;21993;-62
2022/08/30 04:06:56;;;;;;;0.50;0.50;;;;;;;;;;1658988;29;21686;-62
2022/08/30 04:07:48;;;;;;;0.70;0.70;;;;;;;;;;1654069;29;22536;-62
2022/08/30 04:08:40;;;;;;;0.57;0.55;;;;;;;;;;1654598;29;21627;-62
2022/08/30 04:09:32;;;;;;;0.60;0.60;;;;;;;;;;1657371;29;21605;-62
2022/08/30 04:10:23;;;;;;;0.63;0.63;;;;;;;;;;1657484;29;21761;-62
2022/08/30 04:11:15;;;;;;;0.50;0.50;;;;;;;;;;1654160;29;21798;-62
2022/08/30 04:12:07;;;;;;;0.50;0.50;;;;;;;;;;1659412;29;22092;-62
2022/08/30 04:12:59;;;;;;;0.82;0.75;;;;;;;;;;1656643;29;21820;-62
2022/08/30 04:13:54;;;;;;;1.20;0.60;;;;;;;;;;1655668;29;21875;-62
2022/08/30 04:14:46;;;;;;;0.50;0.50;;;;;;;;;;1657661;29;22155;-62
2022/08/30 04:15:37;;;;;;;0.75;0.60;;;;;;;;;;1649578;29;21741;-62
2022/08/30 04:16:30;;;;;;;0.70;0.60;;;;;;;;;;1648812;29;21652;-63
2022/08/30 04:17:21;;;;;;;0.60;0.60;;;;;;;;;;1651116;29;22009;-62
2022/08/30 04:18:13;;;;;;;0.47;0.47;;;;;;;;;;1648195;29;22246;-62
2022/08/30 04:19:04;;;;;;;0.50;0.50;;;;;;;;;;1647949;29;21806;-62
2022/08/30 04:19:57;;;;;;;0.50;0.50;;;;;;;;;;1650618;29;22013;-62
2022/08/30 04:20:50;;;;;;;0.55;0.55;;;;;;;;;;1650741;29;22005;-62
2022/08/30 04:21:42;;;;;;;0.60;0.60;;;;;;;;;;1653418;29;21704;-62
2022/08/30 04:22:33;;;;;;;0.50;0.50;;;;;;;;;;1655557;29;21625;-62
2022/08/30 04:23:27;;;;;;;0.93;0.47;;;;;;;;;;1656921;29;22393;-62
2022/08/30 04:24:18;;;;;;;0.80;0.68;;;;;;;;;;1657293;29;22729;-63
2022/08/30 04:25:11;;;;;;;0.70;0.70;;;;;;;;;;1655011;29;21780;-63
2022/08/30 04:26:03;;;;;;;0.50;0.50;;;;;;;;;;1650938;29;22244;-62
2022/08/30 04:26:55;;;;;;;0.98;0.73;;;;;;;;;;1652505;29;21668;-62
2022/08/30 04:27:46;;;;;;;0.45;0.45;;;;;;;;;;1653540;29;21629;-62
2022/08/30 04:28:39;;;;;;;0.40;0.40;;;;;;;;;;1658767;29;21902;-62
2022/08/30 04:29:32;;;;;;;0.75;0.60;;;;;;;;;;1656208;29;21679;-62
2022/08/30 04:30:24;;;;;;;1.95;0.50;;;;;;;;;;1657133;29;21697;-62
2022/08/30 04:31:17;;;;;;;0.80;0.60;;;;;;;;;;1656094;29;21668;-62
2022/08/30 04:32:10;;;;;;;2.78;0.50;;;;;;;;;;1654473;29;21810;-62
2022/08/30 04:33:01;;;;;;;3.22;0.80;;;;;;;;;;1653271;29;22526;-62
2022/08/30 04:33:53;;;;;;;0.43;0.43;;;;;;;;;;1658072;29;21660;-62
2022/08/30 04:34:44;;;;;;;0.50;0.50;;;;;;;;;;1656966;29;22455;-62
2022/08/30 04:35:37;;;;;;;0.70;0.50;;;;;;;;;;1656497;29;21998;-62
2022/08/30 04:36:28;;;;;;;0.60;0.60;;;;;;;;;;1657169;29;21706;-62
2022/08/30 04:37:20;;;;;;;0.75;0.50;;;;;;;;;;1657078;29;21587;-62
2022/08/30 04:38:12;;;;;;;0.40;0.40;;;;;;;;;;1654444;29;21801;-62
2022/08/30 04:39:04;;;;;;;0.50;0.50;;;;;;;;;;1656799;29;21598;-62
2022/08/30 04:39:56;;;;;;;0.50;0.50;;;;;;;;;;1657914;29;21787;-62
2022/08/30 04:40:48;;;;;;;0.50;0.50;;;;;;;;;;1651525;29;21619;-61
2022/08/30 04:41:40;;;;;;;0.70;0.70;;;;;;;;;;1649474;29;22384;-62
2022/08/30 04:42:33;;;;;;;0.73;0.68;;;;;;;;;;1652763;29;21723;-62
2022/08/30 04:43:26;;;;;;;0.77;0.50;;;;;;;;;;1654655;29;21677;-62
2022/08/30 04:44:17;;;;;;;0.57;0.55;;;;;;;;;;1656129;29;21733;-62
2022/08/30 04:45:15;;;;;;;0.70;0.45;;;;;;;;;;1659255;29;22483;-63
2022/08/30 04:46:08;;;;;;;0.47;0.47;;;;;;;;;;1655864;29;21649;-63
2022/08/30 04:47:01;;;;;;;0.60;0.60;;;;;;;;;;1656884;29;21727;-63
2022/08/30 04:47:52;;;;;;;0.50;0.50;;;;;;;;;;1660565;29;22478;-62
2022/08/30 04:48:45;;;;;;;0.40;0.40;;;;;;;;;;1654787;29;21648;-63
2022/08/30 04:49:37;;;;;;;0.50;0.50;;;;;;;;;;1657128;29;21916;-63
2022/08/30 04:50:29;;;;;;;0.50;0.50;;;;;;;;;;1660885;29;21570;-63
2022/08/30 04:51:21;;;;;;;0.57;0.45;;;;;;;;;;1655273;29;21687;-63
2022/08/30 04:52:13;;;;;;;0.60;0.50;;;;;;;;;;1658402;29;21642;-63
2022/08/30 04:53:04;;;;;;;0.50;0.50;;;;;;;;;;1655172;29;21639;-63
2022/08/30 04:53:56;;;;;;;2.15;0.52;;;;;;;;;;1654588;29;21806;-63
2022/08/30 04:54:53;;;;;;;0.47;0.47;;;;;;;;;;1656235;29;21686;-62
2022/08/30 04:55:45;;;;;;;0.80;0.60;;;;;;;;;;1657528;29;21752;-63
2022/08/30 04:56:36;;;;;;;0.50;0.50;;;;;;;;;;1654913;29;22054;-63
2022/08/30 04:57:30;;;;;;;0.50;0.50;;;;;;;;;;1657677;29;21604;-63
2022/08/30 04:58:21;;;;;;;0.85;0.70;;;;;;;;;;1656149;29;22530;-63
2022/08/30 04:59:13;;;;;;;0.50;0.50;;;;;;;;;;1654005;29;23347;-63
2022/08/30 05:00:10;;;;;;;1.10;0.60;;;;;;;;;;1652987;29;21732;-62
2022/08/30 05:01:03;;;;;;;0.50;0.50;;;;;;;;;;1658336;29;22231;-62
2022/08/30 05:01:54;;;;;;;0.50;0.50;;;;;;;;;;1653885;29;22556;-62
2022/08/30 05:02:47;;;;;;;0.77;0.50;;;;;;;;;;1654894;29;21662;-62
2022/08/30 05:03:38;;;;;;;0.68;0.50;;;;;;;;;;1656088;29;21993;-62
2022/08/30 05:04:30;;;;;;;0.65;0.52;;;;;;;;;;1655570;29;21610;-62
2022/08/30 05:05:40;;;;;;;0.85;0.50;;;;;;;;;;1653232;29;21604;-62
2022/08/30 05:06:32;;;;;;;0.73;0.55;;;;;;;;;;1657092;29;22326;-62
2022/08/30 05:07:23;;;;;;;0.60;0.60;;;;;;;;;;1656060;29;21665;-61
2022/08/30 05:08:19;;;;;;;0.43;0.43;;;;;;;;;;1655857;29;21737;-63
2022/08/30 05:09:10;;;;;;;0.52;0.50;;;;;;;;;;1655882;29;22217;-63
2022/08/30 05:10:03;;;;;;;0.40;0.40;;;;;;;;;;1654820;29;21611;-63
2022/08/30 05:10:54;;;;;;;0.40;0.40;;;;;;;;;;1648931;29;21603;-62
2022/08/30 05:11:47;;;;;;;0.52;0.52;;;;;;;;;;1649082;29;22298;-63
2022/08/30 05:12:38;;;;;;;0.40;0.40;;;;;;;;;;1655375;29;21870;-62
2022/08/30 05:13:30;;;;;;;0.50;0.50;;;;;;;;;;1656484;29;21591;-62
2022/08/30 05:14:21;;;;;;;0.55;0.55;;;;;;;;;;1657192;29;22641;-62
2022/08/30 05:15:15;;;;;;;0.50;0.50;;;;;;;;;;1655649;29;21817;-62
2022/08/30 05:16:07;;;;;;;1.33;0.60;;;;;;;;;;1656288;29;21725;-62